Time;durP1;ratioP1;P1;durP2;ratioP2;P2;SDS_P1;SDS_P2;PMS_P1;PMS_P2;Temp;Humidity;BMP_temperature;BMP_pressure;BME280_temperature;BME280_humidity;BME280_pressure;Samples;Min_cycle;Max_cycle;Signal;HPM_P1;HPM_P2
2023/07/01 00:01:53;;;;;;;0.10;0.10;;;;;;;;;;5068025;28;20472;-75
2023/07/01 00:04:20;;;;;;;0.00;0.00;;;;;;;;;;5067985;28;20474;-75
2023/07/01 00:06:46;;;;;;;0.10;0.10;;;;;;;;;;5066798;28;20435;-75
2023/07/01 00:09:12;;;;;;;0.10;0.10;;;;;;;;;;5067949;28;20472;-75
2023/07/01 00:11:40;;;;;;;0.10;0.10;;;;;;;;;;5066687;28;20249;-75
2023/07/01 00:14:06;;;;;;;0.05;0.05;;;;;;;;;;5068633;28;20279;-75
2023/07/01 00:16:33;;;;;;;0.05;0.05;;;;;;;;;;5065761;28;20261;-75
2023/07/01 00:18:59;;;;;;;0.03;0.03;;;;;;;;;;5069361;28;20273;-75
2023/07/01 00:21:26;;;;;;;0.10;0.10;;;;;;;;;;5064850;28;20241;-75
2023/07/01 00:23:52;;;;;;;0.08;0.08;;;;;;;;;;5070365;28;20298;-75
2023/07/01 00:26:18;;;;;;;0.05;0.05;;;;;;;;;;5063848;28;20244;-75
2023/07/01 00:28:46;;;;;;;0.03;0.03;;;;;;;;;;5071329;28;20272;-75
2023/07/01 00:31:12;;;;;;;0.10;0.10;;;;;;;;;;5062971;28;20310;-75
2023/07/01 00:33:39;;;;;;;0.08;0.08;;;;;;;;;;5072071;28;20324;-75
2023/07/01 00:36:05;;;;;;;0.00;0.00;;;;;;;;;;5061808;28;20252;-75
2023/07/01 00:38:31;;;;;;;0.05;0.05;;;;;;;;;;5072544;28;20278;-75
2023/07/01 00:40:58;;;;;;;0.00;0.00;;;;;;;;;;5060805;28;20243;-75
2023/07/01 00:43:24;;;;;;;0.00;0.00;;;;;;;;;;5073375;28;20582;-75
2023/07/01 00:45:52;;;;;;;0.28;0.28;;;;;;;;;;5059851;28;20443;-74
2023/07/01 00:48:22;;;;;;;0.03;0.03;;;;;;;;;;5074402;28;20241;-75
2023/07/01 00:50:48;;;;;;;0.10;0.10;;;;;;;;;;5059416;28;20268;-75
2023/07/01 00:53:15;;;;;;;0.10;0.10;;;;;;;;;;5074506;28;20274;-75
2023/07/01 00:55:41;;;;;;;0.00;0.00;;;;;;;;;;5058511;28;20249;-75
2023/07/01 00:58:08;;;;;;;0.00;0.00;;;;;;;;;;5075673;28;20278;-75
2023/07/01 01:00:34;;;;;;;0.00;0.00;;;;;;;;;;5057209;28;20245;-75
2023/07/01 01:03:07;;;;;;;0.57;0.57;;;;;;;;;;5076280;28;20213;-75
2023/07/01 01:05:36;;;;;;;0.05;0.05;;;;;;;;;;5057116;28;20241;-74
2023/07/01 01:08:04;;;;;;;0.10;0.10;;;;;;;;;;5076040;28;20433;-75
2023/07/01 01:10:32;;;;;;;0.00;0.00;;;;;;;;;;5056664;28;20307;-75
2023/07/01 01:12:59;;;;;;;0.00;0.00;;;;;;;;;;5076445;28;20277;-75
2023/07/01 01:15:26;;;;;;;0.00;0.00;;;;;;;;;;5055961;28;20238;-75
2023/07/01 01:17:53;;;;;;;0.03;0.03;;;;;;;;;;5076940;28;20272;-75
2023/07/01 01:20:23;;;;;;;0.10;0.10;;;;;;;;;;5055162;28;20239;-75
2023/07/01 01:22:56;;;;;;;0.00;0.00;;;;;;;;;;5077424;28;20210;-75
2023/07/01 01:25:27;;;;;;;0.00;0.00;;;;;;;;;;5055633;28;20285;-75
2023/07/01 01:27:56;;;;;;;0.10;0.10;;;;;;;;;;5076803;28;20523;-75
2023/07/01 01:30:22;;;;;;;0.00;0.00;;;;;;;;;;5055710;28;20385;-75
2023/07/01 01:32:49;;;;;;;0.00;0.00;;;;;;;;;;5077351;28;20233;-75
2023/07/01 01:35:15;;;;;;;0.10;0.10;;;;;;;;;;5054324;28;20273;-75
2023/07/01 01:37:44;;;;;;;0.10;0.10;;;;;;;;;;5078291;28;20397;-74
2023/07/01 01:40:13;;;;;;;0.00;0.00;;;;;;;;;;5053502;28;20270;-75
2023/07/01 01:42:41;;;;;;;0.00;0.00;;;;;;;;;;5078759;28;20554;-75
2023/07/01 01:45:09;;;;;;;0.10;0.10;;;;;;;;;;5060118;28;20294;-76
2023/07/01 01:47:36;;;;;;;0.10;0.10;;;;;;;;;;5078839;28;20281;-75
2023/07/01 01:50:06;;;;;;;0.03;0.03;;;;;;;;;;5063714;28;20530;-75
2023/07/01 01:52:33;;;;;;;0.00;0.00;;;;;;;;;;5052470;28;20217;-74
2023/07/01 01:55:00;;;;;;;0.10;0.10;;;;;;;;;;5063603;28;20451;-75
2023/07/01 01:57:27;;;;;;;0.10;0.10;;;;;;;;;;5068753;28;20242;-75
2023/07/01 01:59:53;;;;;;;0.00;0.00;;;;;;;;;;5063257;28;20232;-75
2023/07/01 02:02:21;;;;;;;0.03;0.03;;;;;;;;;;5068828;28;20260;-74
2023/07/01 02:04:47;;;;;;;0.00;0.00;;;;;;;;;;5063204;28;20294;-74
2023/07/01 02:07:14;;;;;;;0.10;0.10;;;;;;;;;;5068724;28;20257;-74
2023/07/01 02:09:40;;;;;;;0.10;0.10;;;;;;;;;;5063111;28;20247;-75
2023/07/01 02:12:07;;;;;;;0.00;0.00;;;;;;;;;;5068366;28;20243;-75
2023/07/01 02:14:33;;;;;;;0.10;0.10;;;;;;;;;;5063540;28;20239;-75
2023/07/01 02:17:00;;;;;;;0.10;0.10;;;;;;;;;;5067611;28;20252;-75
2023/07/01 02:19:27;;;;;;;0.10;0.10;;;;;;;;;;5063957;28;20207;-74
2023/07/01 02:21:54;;;;;;;0.10;0.10;;;;;;;;;;5066680;28;20359;-75
2023/07/01 02:24:20;;;;;;;0.10;0.10;;;;;;;;;;5064716;28;20230;-75
2023/07/01 02:26:46;;;;;;;0.10;0.10;;;;;;;;;;5065674;28;20286;-75
2023/07/01 02:29:13;;;;;;;0.00;0.00;;;;;;;;;;5065979;28;20237;-75
2023/07/01 02:31:39;;;;;;;0.00;0.00;;;;;;;;;;5068716;28;20241;-75
2023/07/01 02:34:05;;;;;;;0.10;0.10;;;;;;;;;;5070521;28;20275;-75
2023/07/01 02:36:33;;;;;;;0.10;0.10;;;;;;;;;;5067675;28;20252;-75
2023/07/01 02:39:00;;;;;;;0.03;0.03;;;;;;;;;;5071592;28;20257;-75
2023/07/01 02:41:26;;;;;;;0.10;0.10;;;;;;;;;;5066820;28;20245;-75
2023/07/01 02:43:53;;;;;;;0.00;0.00;;;;;;;;;;5072168;28;20589;-75
2023/07/01 02:46:19;;;;;;;0.10;0.10;;;;;;;;;;5065930;28;20302;-75
2023/07/01 02:48:46;;;;;;;0.00;0.00;;;;;;;;;;5073174;28;20241;-75
2023/07/01 02:51:12;;;;;;;0.00;0.00;;;;;;;;;;5064817;28;20236;-74
2023/07/01 02:53:40;;;;;;;0.10;0.10;;;;;;;;;;5074022;28;20277;-75
2023/07/01 02:56:06;;;;;;;0.03;0.03;;;;;;;;;;5063955;28;20501;-75
2023/07/01 02:58:32;;;;;;;0.10;0.10;;;;;;;;;;5074739;28;20441;-75
2023/07/01 03:00:59;;;;;;;0.10;0.10;;;;;;;;;;5062958;28;20434;-75
2023/07/01 03:03:26;;;;;;;0.10;0.10;;;;;;;;;;5075503;28;20565;-74
2023/07/01 03:05:52;;;;;;;0.05;0.05;;;;;;;;;;5061805;28;20244;-75
2023/07/01 03:08:19;;;;;;;0.10;0.10;;;;;;;;;;5076082;28;20282;-75
2023/07/01 03:10:46;;;;;;;0.10;0.10;;;;;;;;;;5060817;28;20247;-74
2023/07/01 03:13:13;;;;;;;0.10;0.10;;;;;;;;;;5077015;28;20277;-75
2023/07/01 03:15:39;;;;;;;0.10;0.10;;;;;;;;;;5060102;28;20309;-75
2023/07/01 03:18:06;;;;;;;0.00;0.00;;;;;;;;;;5077736;28;20297;-75
2023/07/01 03:20:32;;;;;;;0.05;0.05;;;;;;;;;;5059246;28;20300;-75
2023/07/01 03:22:58;;;;;;;0.00;0.00;;;;;;;;;;5078579;28;20207;-75
2023/07/01 03:25:25;;;;;;;0.00;0.00;;;;;;;;;;5057892;28;20297;-75
2023/07/01 03:27:53;;;;;;;0.03;0.03;;;;;;;;;;5079116;28;20211;-74
2023/07/01 03:30:20;;;;;;;0.15;0.15;;;;;;;;;;5057167;28;20277;-75
2023/07/01 03:32:47;;;;;;;0.10;0.10;;;;;;;;;;5079878;28;20244;-75
2023/07/01 03:35:13;;;;;;;0.10;0.10;;;;;;;;;;5056241;28;20269;-75
2023/07/01 03:37:41;;;;;;;0.10;0.10;;;;;;;;;;5080780;28;20229;-75
2023/07/01 03:40:10;;;;;;;0.00;0.00;;;;;;;;;;5065672;28;20273;-75
2023/07/01 03:42:37;;;;;;;0.03;0.03;;;;;;;;;;5074663;28;20205;-74
2023/07/01 03:45:05;;;;;;;0.05;0.05;;;;;;;;;;5085663;28;20226;-74
2023/07/01 03:47:32;;;;;;;0.10;0.10;;;;;;;;;;5054349;28;20210;-75
2023/07/01 03:49:58;;;;;;;0.00;0.00;;;;;;;;;;5065746;28;20276;-75
2023/07/01 03:52:25;;;;;;;0.03;0.03;;;;;;;;;;5087694;28;20301;-75
2023/07/01 03:54:51;;;;;;;0.10;0.10;;;;;;;;;;5065330;28;20269;-74
2023/07/01 03:57:18;;;;;;;0.10;0.10;;;;;;;;;;5087501;28;20570;-75
2023/07/01 03:59:44;;;;;;;0.10;0.10;;;;;;;;;;5065602;28;20569;-74
2023/07/01 04:02:12;;;;;;;1.00;1.00;;;;;;;;;;5087545;28;20307;-74
2023/07/01 04:04:39;;;;;;;0.98;0.98;;;;;;;;;;5065351;28;20227;-75
2023/07/01 04:07:06;;;;;;;4.40;4.13;;;;;;;;;;5086766;28;20255;-74
2023/07/01 04:09:32;;;;;;;0.10;0.10;;;;;;;;;;5065466;28;20214;-74
2023/07/01 04:11:58;;;;;;;0.10;0.10;;;;;;;;;;5084620;28;20247;-74
2023/07/01 04:14:25;;;;;;;0.10;0.10;;;;;;;;;;5067859;28;20204;-74
2023/07/01 04:16:51;;;;;;;0.00;0.00;;;;;;;;;;5082846;28;20507;-75
2023/07/01 04:19:21;;;;;;;0.10;0.10;;;;;;;;;;5069581;28;20371;-74
2023/07/01 04:21:47;;;;;;;0.10;0.10;;;;;;;;;;5081548;28;20306;-75
2023/07/01 04:24:14;;;;;;;0.10;0.10;;;;;;;;;;5070234;28;20266;-74
2023/07/01 04:26:41;;;;;;;0.10;0.10;;;;;;;;;;5079652;28;20239;-74
2023/07/01 04:29:07;;;;;;;0.10;0.10;;;;;;;;;;5072139;28;20246;-74
2023/07/01 04:31:34;;;;;;;0.10;0.10;;;;;;;;;;5077775;28;20306;-74
2023/07/01 04:34:00;;;;;;;0.00;0.00;;;;;;;;;;5073883;28;20258;-74
2023/07/01 04:36:28;;;;;;;0.03;0.03;;;;;;;;;;5075777;28;20310;-74
2023/07/01 04:38:55;;;;;;;0.00;0.00;;;;;;;;;;5075353;28;20280;-74
2023/07/01 04:41:21;;;;;;;0.10;0.10;;;;;;;;;;5074000;28;20249;-75
2023/07/01 04:43:48;;;;;;;0.00;0.00;;;;;;;;;;5076839;28;20304;-74
2023/07/01 04:46:14;;;;;;;0.10;0.10;;;;;;;;;;5072092;28;20265;-74
2023/07/01 04:48:40;;;;;;;0.10;0.10;;;;;;;;;;5078637;28;20212;-74
2023/07/01 04:51:07;;;;;;;0.10;0.10;;;;;;;;;;5070062;28;20266;-74
2023/07/01 04:53:34;;;;;;;0.20;0.20;;;;;;;;;;5080287;28;20385;-74
2023/07/01 04:56:01;;;;;;;0.10;0.10;;;;;;;;;;5068591;28;20258;-74
2023/07/01 04:58:27;;;;;;;0.10;0.10;;;;;;;;;;5082246;28;20236;-74
2023/07/01 05:00:53;;;;;;;0.00;0.00;;;;;;;;;;5066383;28;20589;-74
2023/07/01 05:03:20;;;;;;;0.10;0.10;;;;;;;;;;5084284;28;20217;-75
2023/07/01 05:05:46;;;;;;;0.10;0.10;;;;;;;;;;5064342;28;20254;-75
2023/07/01 05:08:13;;;;;;;0.10;0.10;;;;;;;;;;5085976;28;20279;-74
2023/07/01 05:10:41;;;;;;;0.07;0.07;;;;;;;;;;5062167;28;20238;-74
2023/07/01 05:13:07;;;;;;;0.10;0.10;;;;;;;;;;5087706;28;20208;-74
2023/07/01 05:15:33;;;;;;;0.10;0.10;;;;;;;;;;5060648;28;20284;-74
2023/07/01 05:18:00;;;;;;;0.15;0.15;;;;;;;;;;5089287;28;20231;-74
2023/07/01 05:20:26;;;;;;;0.10;0.10;;;;;;;;;;5058621;28;20237;-75
2023/07/01 05:22:52;;;;;;;0.00;0.00;;;;;;;;;;5090940;28;20211;-74
2023/07/01 05:25:19;;;;;;;0.10;0.10;;;;;;;;;;5056755;28;20228;-74
2023/07/01 05:27:46;;;;;;;0.10;0.10;;;;;;;;;;5093131;28;20207;-74
2023/07/01 05:30:13;;;;;;;0.10;0.10;;;;;;;;;;5054916;28;20271;-75
2023/07/01 05:32:39;;;;;;;0.00;0.00;;;;;;;;;;5094528;28;20235;-74
2023/07/01 05:35:06;;;;;;;0.00;0.00;;;;;;;;;;5063570;28;20239;-74
2023/07/01 05:37:32;;;;;;;0.10;0.10;;;;;;;;;;5069026;28;20284;-74
2023/07/01 05:39:59;;;;;;;0.10;0.10;;;;;;;;;;5063554;28;20223;-75
2023/07/01 05:42:25;;;;;;;0.10;0.10;;;;;;;;;;5085806;28;20261;-74
2023/07/01 05:44:53;;;;;;;0.10;0.10;;;;;;;;;;5063738;28;20480;-75
2023/07/01 05:47:19;;;;;;;0.10;0.10;;;;;;;;;;5085820;28;20260;-75
2023/07/01 05:49:45;;;;;;;0.10;0.10;;;;;;;;;;5063360;28;20235;-75
2023/07/01 05:52:12;;;;;;;0.05;0.05;;;;;;;;;;5085787;28;20255;-75
2023/07/01 05:54:38;;;;;;;0.05;0.05;;;;;;;;;;5063478;28;20197;-75
2023/07/01 05:57:05;;;;;;;0.10;0.10;;;;;;;;;;5084657;28;20254;-75
2023/07/01 05:59:31;;;;;;;0.00;0.00;;;;;;;;;;5064155;28;20256;-74
2023/07/01 06:01:59;;;;;;;0.60;0.60;;;;;;;;;;5081672;28;20302;-75
2023/07/01 06:04:25;;;;;;;0.10;0.10;;;;;;;;;;5068796;28;20235;-75
2023/07/01 06:06:52;;;;;;;0.10;0.10;;;;;;;;;;5085342;28;20302;-74
2023/07/01 06:09:18;;;;;;;0.10;0.10;;;;;;;;;;5071469;28;20284;-75
2023/07/01 06:11:44;;;;;;;0.10;0.10;;;;;;;;;;5083209;28;20240;-74
2023/07/01 06:14:11;;;;;;;0.10;0.10;;;;;;;;;;5073487;28;20215;-75
2023/07/01 06:16:38;;;;;;;0.00;0.00;;;;;;;;;;5081477;28;20251;-75
2023/07/01 06:19:05;;;;;;;0.08;0.08;;;;;;;;;;5075179;28;20248;-75
2023/07/01 06:21:32;;;;;;;0.08;0.08;;;;;;;;;;5080014;28;20249;-75
2023/07/01 06:23:58;;;;;;;0.10;0.10;;;;;;;;;;5076684;28;20390;-75
2023/07/01 06:26:25;;;;;;;0.10;0.10;;;;;;;;;;5077744;28;20239;-75
2023/07/01 06:28:51;;;;;;;0.10;0.10;;;;;;;;;;5078256;28;20301;-75
2023/07/01 06:31:19;;;;;;;0.10;0.10;;;;;;;;;;5075837;28;20492;-75
2023/07/01 06:33:46;;;;;;;0.00;0.00;;;;;;;;;;5080215;28;20228;-76
2023/07/01 06:36:15;;;;;;;1.45;0.30;;;;;;;;;;5074229;28;20252;-77
2023/07/01 06:38:41;;;;;;;0.10;0.10;;;;;;;;;;5081013;28;20210;-76
2023/07/01 06:41:08;;;;;;;0.03;0.03;;;;;;;;;;5072799;28;20282;-76
2023/07/01 06:43:37;;;;;;;0.00;0.00;;;;;;;;;;5082687;28;20242;-76
2023/07/01 06:46:03;;;;;;;0.10;0.10;;;;;;;;;;5071520;28;20458;-76
2023/07/01 06:48:29;;;;;;;0.00;0.00;;;;;;;;;;5083706;28;20202;-77
2023/07/01 06:50:56;;;;;;;0.10;0.10;;;;;;;;;;5069777;28;20498;-76
2023/07/01 06:53:24;;;;;;;0.00;0.00;;;;;;;;;;5086011;28;20239;-77
2023/07/01 06:55:50;;;;;;;0.10;0.10;;;;;;;;;;5068072;28;20295;-78
2023/07/01 06:58:17;;;;;;;0.10;0.10;;;;;;;;;;5087359;28;20270;-77
2023/07/01 07:00:43;;;;;;;0.03;0.03;;;;;;;;;;5065982;28;20456;-77
2023/07/01 07:03:10;;;;;;;0.43;0.40;;;;;;;;;;5089663;28;20271;-75
2023/07/01 07:05:36;;;;;;;0.10;0.10;;;;;;;;;;5064023;28;20240;-77
2023/07/01 07:08:03;;;;;;;0.00;0.00;;;;;;;;;;5090996;28;20214;-77
2023/07/01 07:10:30;;;;;;;0.10;0.10;;;;;;;;;;5061838;28;20249;-76
2023/07/01 07:12:57;;;;;;;0.10;0.10;;;;;;;;;;5092778;28;20211;-77
2023/07/01 07:15:23;;;;;;;0.10;0.10;;;;;;;;;;5060107;28;20203;-77
2023/07/01 07:17:49;;;;;;;0.00;0.00;;;;;;;;;;5094256;28;20236;-77
2023/07/01 07:20:16;;;;;;;0.05;0.05;;;;;;;;;;5057904;28;20203;-81
2023/07/01 07:22:42;;;;;;;0.10;0.10;;;;;;;;;;5080419;28;20205;-74
2023/07/01 07:25:15;;;;;;;0.00;0.00;;;;;;;;;;5056639;28;20208;-78
2023/07/01 07:27:43;;;;;;;0.10;0.10;;;;;;;;;;5096278;28;20259;-80
2023/07/01 07:30:10;;;;;;;0.10;0.10;;;;;;;;;;5056039;28;20266;-77
2023/07/01 07:32:36;;;;;;;0.08;0.08;;;;;;;;;;5097679;28;20254;-76
2023/07/01 07:35:02;;;;;;;0.00;0.00;;;;;;;;;;5065763;28;20215;-75
2023/07/01 07:37:29;;;;;;;0.10;0.10;;;;;;;;;;5088081;28;20259;-75
2023/07/01 07:39:56;;;;;;;0.00;0.00;;;;;;;;;;5066003;28;20205;-74
2023/07/01 07:42:22;;;;;;;0.10;0.10;;;;;;;;;;5088102;28;20244;-88
2023/07/01 07:44:50;;;;;;;0.00;0.00;;;;;;;;;;5066157;28;20274;-87
2023/07/01 07:47:16;;;;;;;0.00;0.00;;;;;;;;;;5088183;28;20252;-83
2023/07/01 07:49:42;;;;;;;0.03;0.03;;;;;;;;;;5066004;28;20239;-86
2023/07/01 07:52:09;;;;;;;0.00;0.00;;;;;;;;;;5088063;28;20237;-79
2023/07/01 07:54:35;;;;;;;0.20;0.20;;;;;;;;;;5065671;28;20274;-82
2023/07/01 07:57:01;;;;;;;0.10;0.10;;;;;;;;;;5085895;28;20236;-77
2023/07/01 07:59:28;;;;;;;0.05;0.05;;;;;;;;;;5067082;28;20224;-78
2023/07/01 08:01:57;;;;;;;0.10;0.10;;;;;;;;;;5083866;28;20263;-77
2023/07/01 08:04:24;;;;;;;0.00;0.00;;;;;;;;;;5068524;28;20237;-70
2023/07/01 08:06:50;;;;;;;0.10;0.10;;;;;;;;;;5082563;28;20240;-71
2023/07/01 08:09:17;;;;;;;0.05;0.05;;;;;;;;;;5069762;28;20220;-69
2023/07/01 08:11:43;;;;;;;0.00;0.00;;;;;;;;;;5080587;28;20239;-69
2023/07/01 08:14:09;;;;;;;0.00;0.00;;;;;;;;;;5071757;28;20240;-70
2023/07/01 08:16:36;;;;;;;0.08;0.08;;;;;;;;;;5078514;28;20247;-69
2023/07/01 08:19:03;;;;;;;0.10;0.10;;;;;;;;;;5073621;28;20241;-70
2023/07/01 08:21:30;;;;;;;0.10;0.10;;;;;;;;;;5076931;28;20240;-76
2023/07/01 08:23:56;;;;;;;0.10;0.10;;;;;;;;;;5075547;28;20275;-73
2023/07/01 08:26:23;;;;;;;0.00;0.00;;;;;;;;;;5074742;28;20315;-76
2023/07/01 08:28:49;;;;;;;0.00;0.00;;;;;;;;;;5076001;28;20204;-77
2023/07/01 08:31:16;;;;;;;0.00;0.00;;;;;;;;;;5073063;28;20261;-78
2023/07/01 08:33:42;;;;;;;0.00;0.00;;;;;;;;;;5078796;28;20214;-78
2023/07/01 08:36:10;;;;;;;0.00;0.00;;;;;;;;;;5071123;28;20429;-78
2023/07/01 08:38:36;;;;;;;0.00;0.00;;;;;;;;;;5080987;28;20258;-75
2023/07/01 08:41:04;;;;;;;0.00;0.00;;;;;;;;;;5068973;28;20252;-79
2023/07/01 08:43:31;;;;;;;0.00;0.00;;;;;;;;;;5081818;28;20231;-78
2023/07/01 08:46:02;;;;;;;0.00;0.00;;;;;;;;;;5068018;28;20234;-75
2023/07/01 08:48:31;;;;;;;0.00;0.00;;;;;;;;;;5082285;28;20211;-76
2023/07/01 08:51:01;;;;;;;0.00;0.00;;;;;;;;;;5067570;28;20242;-76
2023/07/01 08:53:29;;;;;;;0.03;0.03;;;;;;;;;;5082200;28;20263;-78
2023/07/01 08:55:56;;;;;;;0.10;0.10;;;;;;;;;;5067057;28;20376;-77
2023/07/01 08:58:23;;;;;;;0.00;0.00;;;;;;;;;;5083588;28;20326;-77
2023/07/01 09:00:50;;;;;;;0.20;0.20;;;;;;;;;;5065376;28;20324;-76
2023/07/01 09:03:17;;;;;;;0.08;0.08;;;;;;;;;;5085195;28;20517;-73
2023/07/01 09:05:43;;;;;;;0.00;0.00;;;;;;;;;;5063384;28;20265;-73
2023/07/01 09:08:09;;;;;;;0.10;0.10;;;;;;;;;;5086859;28;20236;-74
2023/07/01 09:10:37;;;;;;;0.00;0.00;;;;;;;;;;5061688;28;20305;-76
2023/07/01 09:13:10;;;;;;;0.00;0.00;;;;;;;;;;5088675;28;20450;-72
2023/07/01 09:15:42;;;;;;;0.00;0.00;;;;;;;;;;5061698;28;20433;-75
2023/07/01 09:18:19;;;;;;;0.00;0.00;;;;;;;;;;5086816;28;20215;-72
2023/07/01 09:20:45;;;;;;;0.30;0.30;;;;;;;;;;5063792;28;20240;-73
2023/07/01 09:23:11;;;;;;;0.00;0.00;;;;;;;;;;5086411;28;20452;-74
2023/07/01 09:25:39;;;;;;;0.00;0.00;;;;;;;;;;5061958;28;20238;-74
2023/07/01 09:28:06;;;;;;;0.10;0.10;;;;;;;;;;5087823;28;20242;-72
2023/07/01 09:30:32;;;;;;;0.00;0.00;;;;;;;;;;5059783;28;20242;-73
2023/07/01 09:33:10;;;;;;;0.10;0.10;;;;;;;;;;5089668;28;20271;-75
2023/07/01 09:35:40;;;;;;;0.00;0.00;;;;;;;;;;5061089;28;20241;-73
2023/07/01 09:38:06;;;;;;;0.10;0.10;;;;;;;;;;5087033;28;20275;-74
2023/07/01 09:40:33;;;;;;;0.00;0.00;;;;;;;;;;5060020;28;20238;-74
2023/07/01 09:43:00;;;;;;;0.00;0.00;;;;;;;;;;5089329;28;20235;-73
2023/07/01 09:45:27;;;;;;;0.00;0.00;;;;;;;;;;5058371;28;20275;-73
2023/07/01 09:47:53;;;;;;;0.10;0.10;;;;;;;;;;5090852;28;20590;-74
2023/07/01 09:50:23;;;;;;;0.10;0.10;;;;;;;;;;5056774;28;20243;-75
2023/07/01 09:52:52;;;;;;;0.00;0.00;;;;;;;;;;5091643;28;20554;-74
2023/07/01 09:55:18;;;;;;;0.00;0.00;;;;;;;;;;5056092;28;20218;-74
2023/07/01 09:57:45;;;;;;;0.00;0.00;;;;;;;;;;5092791;28;20207;-73
2023/07/01 10:00:15;;;;;;;0.00;0.00;;;;;;;;;;5054153;28;20262;-74
2023/07/01 10:02:43;;;;;;;0.00;0.00;;;;;;;;;;5094175;28;20208;-73
2023/07/01 10:05:09;;;;;;;0.52;0.52;;;;;;;;;;5053600;28;20515;-74
2023/07/01 10:07:36;;;;;;;0.20;0.20;;;;;;;;;;5095158;28;20291;-73
2023/07/01 10:10:02;;;;;;;0.00;0.00;;;;;;;;;;5063252;28;20226;-74
2023/07/01 10:12:30;;;;;;;0.08;0.08;;;;;;;;;;5085560;28;20236;-72
2023/07/01 10:14:56;;;;;;;0.08;0.08;;;;;;;;;;5063603;28;20211;-73
2023/07/01 10:17:44;;;;;;;0.05;0.05;;;;;;;;;;5085558;28;20250;-74
2023/07/01 10:20:24;;;;;;;0.22;0.22;;;;;;;;;;5053807;28;20514;-73
2023/07/01 10:22:53;;;;;;;0.00;0.00;;;;;;;;;;5091303;28;20279;-76
2023/07/01 10:25:29;;;;;;;3.50;1.20;;;;;;;;;;5056282;28;20242;-80
2023/07/01 10:28:13;;;;;;;0.10;0.10;;;;;;;;;;5089698;28;20286;-74
2023/07/01 10:30:57;;;;;;;0.30;0.30;;;;;;;;;;5061418;28;20265;-76
2023/07/01 10:33:43;;;;;;;0.32;0.32;;;;;;;;;;5082067;28;20239;-73
2023/07/01 10:36:11;;;;;;;0.10;0.10;;;;;;;;;;5069326;28;20250;-74
2023/07/01 10:38:38;;;;;;;0.00;0.00;;;;;;;;;;5078719;28;20426;-75
2023/07/01 10:41:04;;;;;;;0.10;0.10;;;;;;;;;;5067933;28;20451;-75
2023/07/01 10:43:32;;;;;;;0.20;0.20;;;;;;;;;;5080125;28;20204;-75
2023/07/01 10:46:07;;;;;;;0.00;0.00;;;;;;;;;;5066321;28;20435;-75
2023/07/01 10:48:33;;;;;;;0.00;0.00;;;;;;;;;;5079445;28;20322;-74
2023/07/01 10:51:01;;;;;;;0.00;0.00;;;;;;;;;;5068192;28;20241;-75
2023/07/01 10:53:29;;;;;;;0.30;0.30;;;;;;;;;;5084716;28;20204;-73
2023/07/01 10:56:09;;;;;;;0.40;0.40;;;;;;;;;;5069300;28;20306;-75
2023/07/01 10:58:36;;;;;;;0.00;0.00;;;;;;;;;;5082198;28;20196;-75
2023/07/01 11:01:03;;;;;;;0.00;0.00;;;;;;;;;;5070727;28;20288;-75
2023/07/01 11:03:48;;;;;;;0.00;0.00;;;;;;;;;;5084258;28;20504;-75
2023/07/01 11:06:14;;;;;;;0.47;0.47;;;;;;;;;;5074112;28;20302;-74
2023/07/01 11:08:45;;;;;;;0.00;0.00;;;;;;;;;;5080531;28;20235;-74
2023/07/01 11:11:12;;;;;;;0.10;0.10;;;;;;;;;;5073275;28;20239;-75
2023/07/01 11:13:38;;;;;;;0.47;0.47;;;;;;;;;;5081168;28;20283;-74
2023/07/01 11:16:06;;;;;;;0.00;0.00;;;;;;;;;;5071202;28;20242;-74
2023/07/01 11:18:42;;;;;;;0.00;0.00;;;;;;;;;;5082916;28;20564;-75
2023/07/01 11:21:09;;;;;;;0.03;0.03;;;;;;;;;;5072540;28;20272;-74
2023/07/01 11:23:36;;;;;;;0.35;0.35;;;;;;;;;;5081498;28;20204;-74
2023/07/01 11:26:03;;;;;;;0.50;0.50;;;;;;;;;;5070566;28;20246;-75
2023/07/01 11:28:33;;;;;;;0.00;0.00;;;;;;;;;;5083562;28;20295;-75
2023/07/01 11:31:09;;;;;;;0.55;0.55;;;;;;;;;;5069761;28;20239;-75
2023/07/01 11:33:35;;;;;;;0.00;0.00;;;;;;;;;;5081571;28;20192;-74
2023/07/01 11:36:01;;;;;;;0.00;0.00;;;;;;;;;;5070302;28;20305;-73
2023/07/01 11:38:29;;;;;;;0.00;0.00;;;;;;;;;;5083242;28;20263;-75
2023/07/01 11:40:56;;;;;;;0.00;0.00;;;;;;;;;;5068118;28;20238;-75
2023/07/01 11:43:23;;;;;;;0.05;0.05;;;;;;;;;;5085721;28;20218;-76
2023/07/01 11:45:50;;;;;;;0.00;0.00;;;;;;;;;;5067014;28;20299;-74
2023/07/01 11:48:17;;;;;;;0.10;0.10;;;;;;;;;;5086385;28;20295;-75
2023/07/01 11:50:52;;;;;;;0.10;0.10;;;;;;;;;;5065402;28;20238;-74
2023/07/01 11:53:19;;;;;;;0.00;0.00;;;;;;;;;;5085684;28;20203;-75
2023/07/01 11:55:45;;;;;;;0.03;0.03;;;;;;;;;;5065802;28;20492;-75
2023/07/01 11:58:25;;;;;;;0.00;0.00;;;;;;;;;;5087644;28;20200;-74
2023/07/01 12:00:52;;;;;;;0.00;0.00;;;;;;;;;;5066387;28;20276;-74
2023/07/01 12:03:18;;;;;;;0.00;0.00;;;;;;;;;;5085318;28;20211;-74
2023/07/01 12:05:45;;;;;;;1.70;1.58;;;;;;;;;;5065117;28;20265;-75
2023/07/01 12:08:11;;;;;;;0.00;0.00;;;;;;;;;;5087539;28;20468;-75
2023/07/01 12:10:38;;;;;;;0.75;0.75;;;;;;;;;;5063030;28;20533;-73
2023/07/01 12:13:05;;;;;;;0.00;0.00;;;;;;;;;;5089499;28;20203;-73
2023/07/01 12:15:33;;;;;;;1.17;0.25;;;;;;;;;;5061692;28;20239;-74
2023/07/01 12:18:14;;;;;;;0.00;0.00;;;;;;;;;;5090853;28;20204;-75
2023/07/01 12:20:41;;;;;;;0.00;0.00;;;;;;;;;;5062102;28;20322;-74
2023/07/01 12:23:08;;;;;;;0.05;0.05;;;;;;;;;;5087916;28;20275;-75
2023/07/01 12:25:34;;;;;;;0.00;0.00;;;;;;;;;;5062130;28;20455;-73
2023/07/01 12:28:00;;;;;;;0.10;0.10;;;;;;;;;;5090057;28;20583;-74
2023/07/01 12:30:27;;;;;;;0.00;0.00;;;;;;;;;;5059928;28;20255;-75
2023/07/01 12:32:54;;;;;;;0.00;0.00;;;;;;;;;;5091972;28;20384;-74
2023/07/01 12:35:21;;;;;;;0.10;0.10;;;;;;;;;;5058384;28;20459;-73
2023/07/01 12:37:48;;;;;;;0.00;0.00;;;;;;;;;;5093397;28;20208;-75
2023/07/01 12:40:15;;;;;;;0.00;0.00;;;;;;;;;;5056170;28;20275;-75
2023/07/01 12:42:42;;;;;;;0.00;0.00;;;;;;;;;;5095248;28;20204;-75
2023/07/01 12:45:08;;;;;;;0.00;0.00;;;;;;;;;;5058144;28;20208;-76
2023/07/01 12:47:35;;;;;;;0.00;0.00;;;;;;;;;;5096362;28;20231;-74
2023/07/01 12:50:02;;;;;;;0.00;0.00;;;;;;;;;;5064516;28;20279;-74
2023/07/01 12:52:29;;;;;;;0.10;0.10;;;;;;;;;;5086818;28;20302;-74
2023/07/01 12:54:55;;;;;;;0.75;0.75;;;;;;;;;;5064687;28;20204;-74
2023/07/01 12:57:21;;;;;;;0.10;0.10;;;;;;;;;;5086761;28;20238;-74
2023/07/01 12:59:48;;;;;;;0.00;0.00;;;;;;;;;;5064536;28;20238;-75
2023/07/01 13:02:14;;;;;;;0.10;0.10;;;;;;;;;;5086592;28;20258;-75
2023/07/01 13:04:40;;;;;;;0.00;0.00;;;;;;;;;;5064601;28;20243;-75
2023/07/01 13:07:16;;;;;;;0.00;0.00;;;;;;;;;;5086088;28;20317;-73
2023/07/01 13:09:48;;;;;;;0.00;0.00;;;;;;;;;;5064229;28;20212;-74
2023/07/01 13:12:15;;;;;;;0.10;0.10;;;;;;;;;;5086311;28;20277;-75
2023/07/01 13:14:42;;;;;;;0.10;0.10;;;;;;;;;;5063746;28;20263;-74
2023/07/01 13:17:08;;;;;;;0.00;0.00;;;;;;;;;;5086285;28;20276;-75
2023/07/01 13:19:35;;;;;;;0.10;0.10;;;;;;;;;;5063875;28;20204;-76
2023/07/01 13:22:01;;;;;;;0.00;0.00;;;;;;;;;;5084345;28;20268;-75
2023/07/01 13:24:30;;;;;;;0.20;0.20;;;;;;;;;;5065823;28;20453;-75
2023/07/01 13:26:58;;;;;;;0.10;0.10;;;;;;;;;;5082858;28;20242;-73
2023/07/01 13:29:25;;;;;;;0.00;0.00;;;;;;;;;;5066222;28;20275;-75
2023/07/01 13:31:51;;;;;;;0.10;0.10;;;;;;;;;;5081325;28;20303;-75
2023/07/01 13:34:19;;;;;;;0.00;0.00;;;;;;;;;;5068126;28;20212;-74
2023/07/01 13:36:50;;;;;;;0.10;0.10;;;;;;;;;;5079804;28;20242;-75
2023/07/01 13:39:17;;;;;;;0.10;0.10;;;;;;;;;;5068139;28;20196;-75
2023/07/01 13:41:45;;;;;;;0.10;0.10;;;;;;;;;;5079329;28;20306;-74
2023/07/01 13:44:17;;;;;;;0.10;0.10;;;;;;;;;;5069937;28;20276;-74
2023/07/01 13:46:44;;;;;;;0.10;0.10;;;;;;;;;;5079498;28;20314;-74
2023/07/01 13:49:10;;;;;;;0.00;0.00;;;;;;;;;;5069611;28;20259;-75
2023/07/01 13:51:37;;;;;;;0.00;0.00;;;;;;;;;;5077259;28;20306;-75
2023/07/01 13:54:04;;;;;;;0.00;0.00;;;;;;;;;;5071692;28;20274;-74
2023/07/01 13:56:31;;;;;;;0.00;0.00;;;;;;;;;;5075698;28;20238;-74
2023/07/01 13:58:59;;;;;;;0.00;0.00;;;;;;;;;;5072927;28;20200;-75
2023/07/01 14:01:25;;;;;;;0.03;0.03;;;;;;;;;;5074148;28;20262;-75
2023/07/01 14:03:53;;;;;;;0.00;0.00;;;;;;;;;;5074748;28;20275;-75
2023/07/01 14:06:20;;;;;;;0.00;0.00;;;;;;;;;;5072502;28;20288;-75
2023/07/01 14:08:47;;;;;;;0.00;0.00;;;;;;;;;;5075945;28;20258;-75
2023/07/01 14:11:17;;;;;;;0.00;0.00;;;;;;;;;;5070736;28;20261;-75
2023/07/01 14:13:44;;;;;;;0.00;0.00;;;;;;;;;;5076909;28;20192;-75
2023/07/01 14:16:11;;;;;;;0.00;0.00;;;;;;;;;;5069802;28;20309;-75
2023/07/01 14:18:40;;;;;;;0.00;0.00;;;;;;;;;;5078732;28;20236;-75
2023/07/01 14:21:07;;;;;;;0.00;0.00;;;;;;;;;;5068675;28;20242;-74
2023/07/01 14:23:34;;;;;;;0.00;0.00;;;;;;;;;;5079783;28;20204;-75
2023/07/01 14:26:02;;;;;;;0.00;0.00;;;;;;;;;;5069045;28;20302;-76
2023/07/01 14:28:29;;;;;;;0.00;0.00;;;;;;;;;;5084923;28;20230;-76
2023/07/01 14:31:00;;;;;;;0.00;0.00;;;;;;;;;;5069716;28;20248;-75
2023/07/01 14:33:32;;;;;;;0.00;0.00;;;;;;;;;;5085115;28;20230;-76
2023/07/01 14:35:59;;;;;;;0.10;0.10;;;;;;;;;;5070670;28;20596;-75
2023/07/01 14:38:30;;;;;;;0.00;0.00;;;;;;;;;;5085636;28;20204;-75
2023/07/01 14:40:56;;;;;;;0.08;0.08;;;;;;;;;;5069833;28;20238;-75
2023/07/01 14:43:23;;;;;;;0.00;0.00;;;;;;;;;;5086406;28;20243;-76
2023/07/01 14:45:49;;;;;;;0.52;0.52;;;;;;;;;;5067797;28;20238;-75